Time;durP1;ratioP1;P1;durP2;ratioP2;P2;SDS_P1;SDS_P2;PMS_P1;PMS_P2;Temp;Humidity;BMP_temperature;BMP_pressure;BME280_temperature;BME280_humidity;BME280_pressure;Samples;Min_cycle;Max_cycle;Signal;HPM_P1;HPM_P2
2023/04/02 00:02:26;;;;;;;13.90;8.52;;;;;;;;;;4915074;28;25145;-60
2023/04/02 00:05:15;;;;;;;15.35;8.00;;;;;;;;;;4912387;28;25064;-61
2023/04/02 00:07:43;;;;;;;16.42;9.77;;;;;;;;;;4919688;28;25051;-61
2023/04/02 00:10:28;;;;;;;14.25;8.18;;;;;;;;;;4918807;28;25086;-61
2023/04/02 00:13:09;;;;;;;18.10;8.60;;;;;;;;;;4904958;28;25077;-62
2023/04/02 00:15:35;;;;;;;13.70;9.10;;;;;;;;;;4906770;28;25068;-63
2023/04/02 00:18:01;;;;;;;16.48;9.73;;;;;;;;;;4919998;28;25057;-62
2023/04/02 00:20:28;;;;;;;17.40;8.60;;;;;;;;;;4911087;28;25157;-63
2023/04/02 00:22:55;;;;;;;23.73;10.68;;;;;;;;;;4917999;28;25059;-63
2023/04/02 00:25:21;;;;;;;16.30;9.52;;;;;;;;;;4909272;28;25163;-60
2023/04/02 00:27:47;;;;;;;14.23;9.18;;;;;;;;;;4920625;28;25128;-62
2023/04/02 00:30:14;;;;;;;15.88;9.70;;;;;;;;;;4913733;28;25081;-64
2023/04/02 00:32:40;;;;;;;18.17;9.05;;;;;;;;;;4909578;28;24861;-63
2023/04/02 00:35:11;;;;;;;18.27;9.60;;;;;;;;;;4922049;28;25051;-62
2023/04/02 00:37:40;;;;;;;14.40;8.63;;;;;;;;;;4930126;28;25073;-63
2023/04/02 00:40:27;;;;;;;18.13;9.35;;;;;;;;;;4900093;28;25069;-63
2023/04/02 00:42:58;;;;;;;17.20;9.23;;;;;;;;;;4904351;28;25081;-60
2023/04/02 00:45:24;;;;;;;18.33;9.30;;;;;;;;;;4905296;28;25175;-61
2023/04/02 00:47:50;;;;;;;17.58;9.82;;;;;;;;;;4922207;28;25114;-62
2023/04/02 00:50:25;;;;;;;16.70;8.73;;;;;;;;;;4920865;28;25146;-63
2023/04/02 00:52:53;;;;;;;20.55;9.13;;;;;;;;;;4909821;28;25161;-62
2023/04/02 00:55:24;;;;;;;17.25;9.50;;;;;;;;;;4914921;28;25080;-61
2023/04/02 00:57:50;;;;;;;14.45;9.20;;;;;;;;;;4909254;28;25056;-63
2023/04/02 01:00:35;;;;;;;17.85;9.27;;;;;;;;;;4907101;28;25079;-63
2023/04/02 01:03:16;;;;;;;23.73;11.70;;;;;;;;;;4909455;28;25051;-62
2023/04/02 01:05:49;;;;;;;18.52;9.93;;;;;;;;;;4912159;28;25167;-62
2023/04/02 01:08:15;;;;;;;;;;;;;;;;;;4903690;28;25141;-62
2023/04/02 01:10:53;;;;;;;22.42;10.13;;;;;;;;;;4906407;28;25083;-63
2023/04/02 01:13:23;;;;;;;16.98;9.65;;;;;;;;;;4906133;28;25084;-60
2023/04/02 01:16:03;;;;;;;17.80;10.05;;;;;;;;;;4907310;28;25156;-62
2023/04/02 01:18:30;;;;;;;19.38;9.95;;;;;;;;;;4908913;28;25074;-61
2023/04/02 01:21:05;;;;;;;18.88;9.63;;;;;;;;;;4909907;28;25164;-61
2023/04/02 01:23:34;;;;;;;20.25;10.07;;;;;;;;;;4913165;28;25341;-61
2023/04/02 01:26:24;;;;;;;16.58;9.48;;;;;;;;;;4914719;28;25105;-61
2023/04/02 01:29:08;;;;;;;25.38;9.85;;;;;;;;;;4908354;28;25056;-63
2023/04/02 01:31:34;;;;;;;18.77;9.52;;;;;;;;;;4908262;28;25106;-61
2023/04/02 01:34:02;;;;;;;20.60;10.75;;;;;;;;;;4919022;28;25090;-60
2023/04/02 01:36:57;;;;;;;21.05;10.40;;;;;;;;;;4908871;28;25109;-63
2023/04/02 01:39:32;;;;;;;21.88;10.63;;;;;;;;;;4961114;28;25059;-63
2023/04/02 01:41:58;;;;;;;24.25;10.68;;;;;;;;;;4909877;28;25071;-63
2023/04/02 01:44:28;;;;;;;19.27;10.35;;;;;;;;;;4914269;28;25072;-62
2023/04/02 01:46:57;;;;;;;19.98;10.48;;;;;;;;;;4914062;28;25076;-62
2023/04/02 01:49:24;;;;;;;22.33;10.50;;;;;;;;;;4936145;28;25083;-62
2023/04/02 01:51:52;;;;;;;19.60;10.02;;;;;;;;;;4913171;28;25128;-61
2023/04/02 01:54:19;;;;;;;17.80;9.63;;;;;;;;;;4911308;28;25098;-66
2023/04/02 01:56:46;;;;;;;19.05;10.05;;;;;;;;;;4912320;28;25049;-62
2023/04/02 01:59:12;;;;;;;18.67;9.43;;;;;;;;;;4905288;28;25055;-61
2023/04/02 02:01:44;;;;;;;20.45;10.57;;;;;;;;;;4906817;28;25145;-62
2023/04/02 02:04:14;;;;;;;17.20;9.68;;;;;;;;;;4903360;28;25083;-64
2023/04/02 02:06:40;;;;;;;16.33;9.43;;;;;;;;;;4907005;28;25062;-62
2023/04/02 02:09:07;;;;;;;21.10;11.65;;;;;;;;;;4923087;28;25120;-61
2023/04/02 02:11:35;;;;;;;24.45;10.23;;;;;;;;;;4910929;28;25109;-61
2023/04/02 02:14:05;;;;;;;18.98;9.15;;;;;;;;;;4908836;28;25140;-61
2023/04/02 02:16:32;;;;;;;23.00;11.70;;;;;;;;;;4902890;28;25151;-61
2023/04/02 02:19:00;;;;;;;19.15;10.50;;;;;;;;;;4927329;28;25054;-62
2023/04/02 02:21:36;;;;;;;18.27;10.88;;;;;;;;;;4907922;28;25096;-63
2023/04/02 02:24:03;;;;;;;19.70;10.00;;;;;;;;;;4913630;28;25076;-59
2023/04/02 02:26:32;;;;;;;21.05;10.65;;;;;;;;;;4930339;28;25096;-60
2023/04/02 02:29:00;;;;;;;18.83;10.57;;;8.30;99.90;;;;;;4945941;28;25062;-60
2023/04/02 02:31:31;;;;;;;19.40;9.90;;;;;;;;;;4956420;28;25160;-61
2023/04/02 02:34:00;;;;;;;20.35;10.50;;;;;;;;;;4935428;28;25059;-62
2023/04/02 02:36:26;;;;;;;13.35;8.60;;;;;;;;;;4914213;28;25067;-62
2023/04/02 02:38:55;;;;;;;17.77;9.45;;;;;;;;;;4907808;28;25088;-61
2023/04/02 02:41:40;;;;;;;19.08;9.65;;;;;;;;;;4920680;28;25115;-62
2023/04/02 02:44:09;;;;;;;17.90;9.35;;;;;;;;;;4906874;28;25070;-61
2023/04/02 02:46:37;;;;;;;19.13;9.00;;;;;;;;;;4911011;28;25124;-61
2023/04/02 02:49:04;;;;;;;17.33;8.00;;;;;;;;;;4913257;28;25070;-61
2023/04/02 02:51:39;;;;;;;14.98;9.02;;;;;;;;;;4913982;28;25072;-64
2023/04/02 02:54:06;;;;;;;16.33;8.80;;;;;;;;;;4915084;28;25051;-65
2023/04/02 02:56:35;;;;;;;16.73;9.43;;;;;;;;;;4914774;28;25057;-60
2023/04/02 02:59:03;;;;;;;15.98;8.63;;;;;;;;;;4919650;28;25077;-64
2023/04/02 03:01:30;;;;;;;16.42;8.95;;;;;;;;;;4910171;28;25071;-62
2023/04/02 03:03:56;;;;;;;17.05;8.15;;;;;;;;;;4928079;28;25048;-63
2023/04/02 03:06:23;;;;;;;14.00;7.65;;;;;;;;;;4918297;28;25078;-62
2023/04/02 03:08:53;;;;;;;15.55;7.78;;;;;;;;;;4930699;28;25073;-62
2023/04/02 03:11:33;;;;;;;17.05;9.52;;;;;;;;;;5002034;23;25084;-71
2023/04/02 03:14:05;;;;;;;16.30;8.02;;;;;;;;;;4998180;28;25051;-71
2023/04/02 03:16:36;;;;;;;22.92;9.55;;;;;;;;;;5006012;28;25081;-72
2023/04/02 03:19:31;;;;;;;15.25;9.07;;;;;;;;;;5007835;28;25118;-72
2023/04/02 03:22:06;;;;;;;16.90;9.05;;;7.90;99.90;;;;;;4980412;28;25111;-71
2023/04/02 03:24:39;;;;;;;17.40;8.05;;;;;;;;;;4982412;28;25071;-72
2023/04/02 03:27:25;;;;;;;18.25;8.50;;;;;;;;;;4977053;28;25126;-72
2023/04/02 03:30:10;;;;;;;16.20;8.35;;;;;;;;;;4987754;28;25078;-71
2023/04/02 03:32:38;;;;;;;19.90;7.88;;;;;;;;;;4988734;28;25086;-71
2023/04/02 03:35:10;;;;;;;19.15;9.00;;;;;;;;;;4994876;28;25083;-72
2023/04/02 03:37:45;;;;;;;16.80;7.72;;;;;;;;;;4998101;28;25075;-71
2023/04/02 03:40:20;;;;;;;18.20;8.48;;;;;;;;;;4978663;28;25071;-70
2023/04/02 03:42:51;;;;;;;12.00;7.63;;;7.70;99.90;;;;;;4992935;28;25060;-72
2023/04/02 03:45:24;;;;;;;13.98;7.57;;;;;;;;;;4994353;28;25065;-72
2023/04/02 03:48:00;;;;;;;18.63;8.25;;;;;;;;;;4991750;28;25060;-72
2023/04/02 03:50:40;;;;;;;18.20;8.90;;;;;;;;;;4992229;28;25082;-72
2023/04/02 03:53:06;;;;;;;16.17;8.68;;;;;;;;;;4984999;28;25071;-70
2023/04/02 03:55:34;;;;;;;17.98;8.75;;;;;;;;;;4986680;28;25114;-72
2023/04/02 03:58:18;;;;;;;22.90;10.55;;;;;;;;;;4998966;28;25074;-71
2023/04/02 04:00:53;;;;;;;18.65;7.80;;;;;;;;;;4991743;28;25128;-73
2023/04/02 04:03:22;;;;;;;16.95;8.63;;;;;;;;;;4986975;28;25056;-70
2023/04/02 04:05:51;;;;;;;14.95;7.35;;;;;;;;;;4986185;28;25063;-71
2023/04/02 04:08:22;;;;;;;19.90;7.07;;;;;;;;;;4986742;28;25085;-71
2023/04/02 04:10:58;;;;;;;15.13;8.38;;;;;;;;;;4989322;28;25072;-71
2023/04/02 04:13:29;;;;;;;13.52;7.28;;;;;;;;;;4982179;28;25087;-72
2023/04/02 04:15:59;;;;;;;13.35;7.97;;;;;;;;;;4986802;28;25082;-73
2023/04/02 04:18:36;;;;;;;15.68;8.52;;;;;;;;;;4982895;28;25062;-72
2023/04/02 04:21:28;;;;;;;13.75;7.82;;;;;;;;;;4983317;28;25133;-72
2023/04/02 04:23:55;;;;;;;17.80;9.20;;;;;;;;;;4986534;28;25143;-73
2023/04/02 04:26:38;;;;;;;13.75;8.18;;;;;;;;;;4987507;28;25075;-71
2023/04/02 04:29:04;;;;;;;16.65;8.10;;;;;;;;;;4990375;22;25073;-61
2023/04/02 04:31:37;;;;;;;21.55;7.03;;;;;;;;;;4965320;28;25074;-61
2023/04/02 04:34:07;;;;;;;15.40;7.80;;;;;;;;;;4960712;28;25063;-62
2023/04/02 04:36:52;;;;;;;18.33;8.15;;;;;;;;;;4955096;28;25069;-62
2023/04/02 04:39:22;;;;;;;15.15;8.27;;;;;;;;;;4948788;28;25060;-61
2023/04/02 04:41:49;;;;;;;12.93;8.02;;;;;;;;;;4958256;28;25052;-63
2023/04/02 04:44:22;;;;;;;17.67;8.20;;;;;;;;;;4997355;22;25078;-72
2023/04/02 04:47:08;;;;;;;15.48;8.32;;;;;;;;;;4999012;28;25066;-71
2023/04/02 04:49:38;;;;;;;11.40;7.18;;;;;;;;;;4990329;28;25141;-76
2023/04/02 04:52:07;;;;;;;13.20;7.45;;;;;;;;;;4989486;28;25137;-73
2023/04/02 04:54:36;;;;;;;13.23;6.95;;;;;;;;;;4991266;28;25101;-75
2023/04/02 04:57:02;;;;;;;20.50;8.07;;;;;;;;;;4986055;28;25067;-72
2023/04/02 04:59:36;;;;;;;16.98;8.20;;;;;;;;;;4982241;28;25086;-74
2023/04/02 05:02:10;;;;;;;21.67;8.27;;;;;;;;;;4990111;28;25083;-76
2023/04/02 05:04:36;;;;;;;13.73;8.20;;;;;;;;;;4996459;28;25054;-79
2023/04/02 05:07:10;;;;;;;15.70;7.85;;;;;;;;;;4987676;28;25065;-73
2023/04/02 05:09:45;;;;;;;16.73;9.60;;;;;;;;;;4985916;28;25179;-73
2023/04/02 05:12:14;;;;;;;17.65;8.80;;;;;;;;;;4982224;28;25079;-75
2023/04/02 05:15:09;;;;;;;16.40;8.73;;;;;;;;;;4992470;28;25056;-73
2023/04/02 05:18:05;;;;;;;11.88;7.18;;;;;;;;;;4992404;28;25079;-75
2023/04/02 05:20:33;;;;;;;12.30;7.88;;;;;;;;;;4969005;28;25093;-78
2023/04/02 05:23:03;;;;;;;13.30;7.88;;;;;;;;;;4989340;28;25099;-74
2023/04/02 05:25:30;;;;;;;12.10;7.07;;;;;;;;;;4991779;28;25081;-76
2023/04/02 05:28:04;;;;;;;13.77;7.85;;;;;;;;;;4998336;28;25141;-74
2023/04/02 05:30:45;;;;;;;12.00;6.93;;;;;;;;;;4993493;28;25108;-74
2023/04/02 05:33:23;;;;;;;12.05;7.30;;;;;;;;;;4983962;28;25064;-76
2023/04/02 05:35:53;;;;;;;17.73;7.70;;;;;;;;;;4988780;28;25060;-74
2023/04/02 05:38:21;;;;;;;12.13;6.97;;;;;;;;;;4985172;28;25067;-76
2023/04/02 05:40:49;;;;;;;14.05;7.38;;;;;;;;;;4985338;28;25144;-72
2023/04/02 05:43:17;;;;;;;15.40;7.38;;;;;;;;;;4987719;28;25135;-75
2023/04/02 05:45:50;;;;;;;11.57;6.90;;;6.50;99.90;;;;;;4983200;28;25112;-78
2023/04/02 05:48:21;;;;;;;15.65;7.10;;;;;;;;;;4981866;28;25061;-76
2023/04/02 05:50:50;;;;;;;12.13;6.68;;;;;;;;;;4991239;28;25079;-75
2023/04/02 05:53:37;;;;;;;13.70;6.78;;;;;;;;;;4979416;28;25069;-73
2023/04/02 05:56:03;;;;;;;11.50;6.93;;;;;;;;;;4986972;28;25093;-75
2023/04/02 05:58:34;;;;;;;9.70;6.38;;;;;;;;;;4985693;28;25163;-75
2023/04/02 06:01:01;;;;;;;17.70;6.75;;;;;;;;;;4984633;28;25079;-74
2023/04/02 06:03:31;;;;;;;11.27;6.68;;;;;;;;;;4977773;28;25074;-75
2023/04/02 06:06:00;;;;;;;13.95;6.70;;;;;;;;;;4985320;28;25074;-74
2023/04/02 06:08:34;;;;;;;14.20;6.85;;;;;;;;;;4980408;28;25123;-74
2023/04/02 06:11:11;;;;;;;11.90;5.60;;;;;;;;;;4980386;28;25164;-75
2023/04/02 06:13:37;;;;;;;13.00;7.53;;;;;;;;;;4985668;28;25131;-72
2023/04/02 06:16:03;;;;;;;9.80;5.43;;;;;;;;;;4985793;28;25076;-74
2023/04/02 06:18:36;;;;;;;11.63;6.78;;;6.10;99.90;;;;;;4986068;28;25114;-74
2023/04/02 06:21:02;;;;;;;16.30;6.55;;;;;;;;;;4983410;28;25067;-73
2023/04/02 06:23:32;;;;;;;8.00;5.28;;;;;;;;;;4987026;28;25075;-76
2023/04/02 06:26:11;;;;;;;10.85;6.55;;;;;;;;;;4984370;28;25076;-75
2023/04/02 06:28:42;;;;;;;13.05;6.18;;;;;;;;;;4984145;28;25057;-74
2023/04/02 06:31:11;;;;;;;10.45;5.43;;;;;;;;;;4986182;28;25100;-73
2023/04/02 06:33:37;;;;;;;12.18;6.30;;;;;;;;;;4992496;28;25156;-77
2023/04/02 06:36:04;;;;;;;9.63;5.15;;;;;;;;;;4991768;28;25097;-74
2023/04/02 06:38:31;;;;;;;12.00;5.93;;;5.80;99.90;;;;;;4985852;28;25085;-72
2023/04/02 06:41:06;;;;;;;12.95;5.93;;;5.80;99.90;;;;;;4994552;28;25113;-74
2023/04/02 06:43:39;;;;;;;13.88;5.82;;;5.60;99.90;;;;;;4978127;28;25087;-74
2023/04/02 06:46:09;;;;;;;13.57;5.40;;;;;;;;;;4983802;28;25125;-76
2023/04/02 06:48:36;;;;;;;8.63;5.32;;;;;;;;;;4981398;28;25108;-74
2023/04/02 06:51:08;;;;;;;9.48;4.82;;;5.70;99.90;;;;;;4983942;28;25180;-73
2023/04/02 06:53:34;;;;;;;12.95;5.55;;;;;;;;;;4980346;28;25097;-77
2023/04/02 06:56:09;;;;;;;11.15;4.95;;;;;;;;;;4984261;28;25053;-74
2023/04/02 06:58:35;;;;;;;9.07;5.30;;;;;;;;;;4982262;28;25164;-75
2023/04/02 07:01:01;;;;;;;10.80;5.05;;;;;;;;;;4986628;28;25061;-73
2023/04/02 07:03:29;;;;;;;10.18;4.65;;;;;;;;;;4975936;28;25080;-74
2023/04/02 07:05:55;;;;;;;6.80;4.00;;;;;;;;;;4980122;28;25105;-73
2023/04/02 07:08:21;;;;;;;13.32;5.03;;;5.40;99.90;;;;;;4982110;28;25061;-75
2023/04/02 07:10:47;;;;;;;6.82;4.45;;;;;;;;;;4979780;28;25062;-74
2023/04/02 07:13:17;;;;;;;7.22;4.13;;;;;;;;;;4982129;28;25078;-75
2023/04/02 07:15:45;;;;;;;12.05;4.05;;;;;;;;;;4974212;28;25061;-72
2023/04/02 07:18:20;;;;;;;9.45;4.82;;;;;;;;;;4984893;28;25074;-76
2023/04/02 07:20:46;;;;;;;7.32;3.78;;;;;;;;;;4985246;28;25055;-75
2023/04/02 07:23:13;;;;;;;9.48;4.07;;;;;;;;;;4992505;28;25105;-74
2023/04/02 07:25:39;;;;;;;9.98;3.63;;;;;;;;;;4986686;28;25078;-75
2023/04/02 07:28:05;;;;;;;10.52;3.80;;;;;;;;;;4983557;28;25117;-76
2023/04/02 07:30:30;;;;;;;8.25;3.30;;;4.60;99.90;;;;;;4984435;28;25059;-77
2023/04/02 07:32:57;;;;;;;5.53;2.72;;;;;;;;;;4985175;28;25109;-73
2023/04/02 07:35:22;;;;;;;6.10;3.50;;;;;;;;;;4974977;28;25052;-75
2023/04/02 07:37:48;;;;;;;6.93;4.00;;;;;;;;;;4983573;28;25084;-76
2023/04/02 07:40:16;;;;;;;5.28;3.25;;;;;;;;;;4979692;28;25088;-75
2023/04/02 07:42:42;;;;;;;11.52;4.50;;;;;;;;;;4982237;28;25058;-76
2023/04/02 07:45:08;;;;;;;6.60;3.58;;;;;;;;;;4983058;28;25059;-74
2023/04/02 07:47:34;;;;;;;4.88;3.50;;;4.70;99.90;;;;;;4987980;28;25150;-76
2023/04/02 07:50:00;;;;;;;6.95;4.68;;;;;;;;;;4985598;28;25065;-77
2023/04/02 07:52:26;;;;;;;9.93;4.65;;;;;;;;;;5001970;28;25065;-74
2023/04/02 07:54:52;;;;;;;10.57;4.55;;;;;;;;;;5003718;28;25070;-76
2023/04/02 07:57:18;;;;;;;4.80;3.35;;;;;;;;;;4988016;28;25139;-74
2023/04/02 07:59:45;;;;;;;12.82;3.55;;;4.80;99.90;;;;;;4982328;28;25057;-77
2023/04/02 08:02:21;;;;;;;5.30;3.97;;;;;;;;;;4980864;28;25082;-74
2023/04/02 08:04:48;;;;;;;7.85;3.97;;;;;;;;;;5000782;28;25145;-75
2023/04/02 08:07:14;;;;;;;10.05;3.80;;;;;;;;;;5005567;28;25072;-77
2023/04/02 08:09:40;;;;;;;13.52;5.10;;;;;;;;;;5003648;28;25100;-73
2023/04/02 08:12:06;;;;;;;11.38;3.85;;;;;;;;;;4977807;28;25149;-74
2023/04/02 08:14:32;;;;;;;11.70;3.40;;;;;;;;;;4982776;28;25068;-72
2023/04/02 08:16:58;;;;;;;7.88;4.18;;;;;;;;;;4983518;28;25079;-73
2023/04/02 08:19:24;;;;;;;9.05;4.60;;;;;;;;;;4984038;28;25062;-74
2023/04/02 08:21:51;;;;;;;9.55;4.53;;;;;;;;;;4971180;28;25107;-73
2023/04/02 08:24:18;;;;;;;15.70;4.47;;;;;;;;;;4978166;28;25052;-75
2023/04/02 08:26:44;;;;;;;16.50;5.13;;;4.80;99.90;;;;;;4982993;28;25085;-74
2023/04/02 08:29:10;;;;;;;12.30;4.90;;;;;;;;;;4982836;28;25074;-74
2023/04/02 08:31:37;;;;;;;8.43;4.85;;;;;;;;;;4985051;28;25072;-76
2023/04/02 08:34:03;;;;;;;12.70;5.35;;;;;;;;;;4980503;28;25054;-74
2023/04/02 08:36:32;;;;;;;13.07;7.32;;;;;;;;;;4982366;28;25084;-78
2023/04/02 08:38:58;;;;;;;11.00;6.03;;;;;;;;;;4980524;28;25064;-76
2023/04/02 08:41:30;;;;;;;10.60;5.63;;;;;;;;;;4990669;28;25122;-78
2023/04/02 08:43:56;;;;;;;;;;;;;;;;;;4984678;28;25076;-77
2023/04/02 08:46:22;;;;;;;10.90;5.55;;;;;;;;;;4996097;28;24073;-74
2023/04/02 08:48:57;;;;;;;9.60;5.00;;;;;;;;;;4983582;28;25065;-78
2023/04/02 08:51:27;;;;;;;8.05;5.45;;;;;;;;;;4984476;28;25068;-75
2023/04/02 08:53:58;;;;;;;10.25;5.82;;;;;;;;;;4994980;28;25056;-76
2023/04/02 08:56:24;;;;;;;10.52;6.10;;;;;;;;;;4983612;28;25086;-76
2023/04/02 08:58:53;;;;;;;9.25;4.72;;;;;;;;;;4982504;28;25096;-74
2023/04/02 09:01:19;;;;;;;8.18;4.60;;;;;;;;;;4976298;28;25118;-74
2023/04/02 09:03:46;;;;;;;12.25;4.43;;;;;;;;;;4981059;28;25074;-76
2023/04/02 09:06:14;;;;;;;6.20;4.22;;;;;;;;;;4979150;28;25130;-72
2023/04/02 09:08:42;;;;;;;7.18;4.75;;;;;;;;;;4976913;28;25068;-72
2023/04/02 09:11:11;;;;;;;8.05;4.28;;;;;;;;;;4974579;28;26177;-76
2023/04/02 09:13:41;;;;;;;6.97;4.43;;;;;;;;;;4977650;28;25107;-78
2023/04/02 09:16:15;;;;;;;12.63;4.70;;;;;;;;;;4975383;28;25062;-77
2023/04/02 09:18:41;;;;;;;9.32;4.78;;;;;;;;;;4976172;28;25063;-75
2023/04/02 09:21:22;;;;;;;5.18;4.13;;;;;;;;;;4974246;28;25139;-76
2023/04/02 09:23:48;;;;;;;5.57;3.60;;;;;;;;;;4972341;28;25074;-76
2023/04/02 09:26:29;;;;;;;5.80;3.78;;;;;;;;;;4968749;28;25062;-78
2023/04/02 09:29:00;;;;;;;15.80;4.40;;;;;;;;;;4978311;28;25151;-78
2023/04/02 09:31:38;;;;;;;12.55;3.90;;;;;;;;;;4971128;28;25584;-77
2023/04/02 09:34:24;;;;;;;5.28;3.92;;;;;;;;;;4976700;28;25055;-76
2023/04/02 09:36:50;;;;;;;8.88;4.05;;;;;;;;;;4970714;28;25086;-77
2023/04/02 09:39:18;;;;;;;4.45;3.67;;;;;;;;;;4977115;28;25053;-75
2023/04/02 09:41:44;;;;;;;6.88;3.83;;;;;;;;;;4996948;28;25084;-75
2023/04/02 09:44:12;;;;;;;7.85;4.15;;;;;;;;;;4998097;28;25155;-73
2023/04/02 09:46:46;;;;;;;7.88;3.50;;;;;;;;;;4979360;28;25076;-77
2023/04/02 09:49:15;;;;;;;8.02;3.83;;;;;;;;;;4977266;28;25161;-76
2023/04/02 09:51:41;;;;;;;13.25;4.18;;;;;;;;;;4974043;28;25070;-78
2023/04/02 09:54:08;;;;;;;6.47;3.38;;;;;;;;;;4981478;28;25049;-74
2023/04/02 09:56:38;;;;;;;10.20;4.13;;;;;;;;;;4989654;28;25046;-79
2023/04/02 09:59:15;;;;;;;13.30;4.68;;;;;;;;;;4995202;28;25118;-73
2023/04/02 10:01:56;;;;;;;7.00;3.67;;;;;;;;;;4998092;28;25432;-78
2023/04/02 10:04:36;;;;;;;5.68;3.35;;;;;;;;;;4977130;28;25070;-75
2023/04/02 10:07:02;;;;;;;5.47;3.70;;;;;;;;;;4975426;28;25057;-75
2023/04/02 10:09:31;;;;;;;7.20;3.63;;;4.80;99.90;;;;;;4979910;28;25093;-76
2023/04/02 10:11:58;;;;;;;3.75;2.85;;;;;;;;;;4985889;28;25060;-77
2023/04/02 10:14:27;;;;;;;3.95;3.10;;;;;;;;;;4982991;28;25096;-74
2023/04/02 10:16:56;;;;;;;4.35;3.25;;;;;;;;;;4971914;28;25082;-73
2023/04/02 10:19:37;;;;;;;5.65;3.58;;;;;;;;;;4970761;28;25063;-78
2023/04/02 10:22:06;;;;;;;5.20;3.70;;;;;;;;;;4982029;28;25064;-76
2023/04/02 10:24:31;;;;;;;6.05;4.47;;;4.90;99.90;;;;;;4970429;28;25058;-75
2023/04/02 10:27:05;;;;;;;3.80;3.42;;;4.80;99.90;;;;;;4978460;28;25062;-78
2023/04/02 10:29:31;;;;;;;5.72;4.20;;;;;;;;;;4976546;28;25079;-76
2023/04/02 10:32:00;;;;;;;6.50;3.58;;;;;;;;;;4991869;28;25099;-74
2023/04/02 10:34:49;;;;;;;10.13;3.72;;;;;;;;;;4978817;28;25102;-76
2023/04/02 10:37:42;;;;;;;5.82;4.22;;;5.00;99.90;;;;;;4986057;28;25168;-74
2023/04/02 10:40:26;;;;;;;6.47;4.30;;;;;;;;;;4972999;28;25073;-76
2023/04/02 10:42:52;;;;;;;6.50;4.22;;;;;;;;;;4981968;28;25061;-77
2023/04/02 10:45:35;;;;;;;10.45;4.80;;;;;;;;;;4976859;28;25084;-76
2023/04/02 10:48:13;;;;;;;11.10;5.43;;;;;;;;;;4975816;28;25153;-75
2023/04/02 10:50:43;;;;;;;7.32;4.82;;;;;;;;;;4979807;28;25060;-78
2023/04/02 10:53:15;;;;;;;9.73;4.50;;;;;;;;;;4983909;28;25151;-78
2023/04/02 10:55:53;;;;;;;6.35;5.03;;;;;;;;;;4982628;28;25109;-77
2023/04/02 10:58:24;;;;;;;11.73;5.82;;;;;;;;;;4973240;28;25100;-74
2023/04/02 11:00:51;;;;;;;6.93;5.65;;;;;;;;;;4988696;28;25061;-76
2023/04/02 11:03:27;;;;;;;5.93;4.95;;;;;;;;;;4990870;28;25065;-76
2023/04/02 11:05:55;;;;;;;10.73;5.10;;;;;;;;;;4994744;28;25065;-78
2023/04/02 11:08:26;;;;;;;6.88;4.88;;;;;;;;;;4989387;28;25144;-78
2023/04/02 11:10:57;;;;;;;9.02;5.63;;;;;;;;;;4988104;28;25110;-79
2023/04/02 11:13:29;;;;;;;8.73;4.90;;;6.00;99.90;;;;;;4997340;28;25067;-78
2023/04/02 11:15:56;;;;;;;10.90;5.28;;;;;;;;;;4998948;28;25068;-77
2023/04/02 11:18:23;;;;;;;10.50;5.82;;;;;;;;;;4990281;28;25056;-80
2023/04/02 11:20:49;;;;;;;8.27;4.88;;;;;;;;;;4987288;28;25089;-78
2023/04/02 11:23:19;;;;;;;6.03;4.55;;;;;;;;;;4995396;28;25050;-79
2023/04/02 11:25:46;;;;;;;4.95;4.10;;;;;;;;;;4999702;28;25061;-81
2023/04/02 11:28:32;;;;;;;6.90;5.03;;;;;;;;;;4989528;28;25142;-79
2023/04/02 11:30:59;;;;;;;7.78;4.78;;;;;;;;;;5005976;28;25068;-84
2023/04/02 11:33:34;;;;;;;6.65;4.07;;;;;;;;;;4991155;28;25102;-81
2023/04/02 11:36:01;;;;;;;9.60;3.80;;;;;;;;;;4996551;28;25073;-79
2023/04/02 11:38:26;;;;;;;6.93;3.55;;;;;;;;;;4995771;28;25066;-79
2023/04/02 11:40:55;;;;;;;3.90;3.50;;;;;;;;;;5001062;28;25109;-81
2023/04/02 11:43:34;;;;;;;14.30;3.92;;;;;;;;;;5005007;28;25074;-78
2023/04/02 11:46:01;;;;;;;7.35;3.20;;;;;;;;;;4996630;28;25063;-78
2023/04/02 11:48:27;;;;;;;6.25;2.88;;;;;;;;;;5002187;28;25089;-80
2023/04/02 11:50:53;;;;;;;4.45;2.63;;;;;;;;;;4993262;28;25081;-82
2023/04/02 11:53:21;;;;;;;5.13;2.28;;;;;;;;;;4989989;28;25056;-78
2023/04/02 11:55:53;;;;;;;4.32;2.42;;;;;;;;;;4992547;28;25083;-80
2023/04/02 11:58:42;;;;;;;4.38;3.00;;;;;;;;;;4996546;28;25078;-77
2023/04/02 12:01:18;;;;;;;4.32;2.22;;;;;;;;;;5001705;28;25145;-79
2023/04/02 12:03:44;;;;;;;6.05;2.53;;;;;;;;;;5000985;28;25061;-77
2023/04/02 12:06:15;;;;;;;4.68;2.13;;;;;;;;;;5004578;28;25061;-76
2023/04/02 12:08:56;;;;;;;5.60;2.35;;;;;;;;;;5001037;28;25072;-79
2023/04/02 12:11:32;;;;;;;7.85;2.47;;;;;;;;;;5004649;28;25085;-78
2023/04/02 12:13:59;;;;;;;6.65;1.90;;;;;;;;;;5010035;28;25069;-86
2023/04/02 12:16:30;;;;;;;3.22;2.20;;;;;;;;;;5000982;28;25082;-82
2023/04/02 12:18:56;;;;;;;5.35;1.95;;;;;;;;;;4998648;28;25072;-83
2023/04/02 12:21:24;;;;;;;6.25;2.67;;;;;;;;;;5004598;28;25100;-82
2023/04/02 12:23:51;;;;;;;3.63;2.20;;;;;;;;;;4994241;28;25091;-81
2023/04/02 12:26:24;;;;;;;5.28;2.42;;;;;;;;;;4993580;28;25057;-77
2023/04/02 12:28:50;;;;;;;3.58;1.95;;;;;;;;;;4997087;28;25157;-81
2023/04/02 12:31:17;;;;;;;5.07;2.35;;;;;;;;;;4997632;28;25086;-80
2023/04/02 12:33:43;;;;;;;6.38;2.30;;;;;;;;;;5007656;28;25047;-79
2023/04/02 12:36:15;;;;;;;8.18;2.58;;;;;;;;;;4988671;28;25116;-77
2023/04/02 12:38:46;;;;;;;6.90;2.25;;;;;;;;;;4995767;28;25055;-78
2023/04/02 12:41:22;;;;;;;6.00;2.55;;;;;;;;;;4992450;28;25089;-75
2023/04/02 12:43:56;;;;;;;2.63;2.08;;;;;;;;;;4996100;28;25072;-76
2023/04/02 12:46:24;;;;;;;3.63;1.73;;;;;;;;;;4993223;28;25095;-76
2023/04/02 12:48:50;;;;;;;6.68;2.10;;;;;;;;;;4989196;28;25083;-76
2023/04/02 12:51:16;;;;;;;6.18;2.25;;;;;;;;;;4997050;28;25074;-79
2023/04/02 12:53:48;;;;;;;3.65;2.20;;;;;;;;;;4998721;28;25175;-79
2023/04/02 12:56:21;;;;;;;12.23;4.60;;;;;;;;;;5004696;28;25067;-78
2023/04/02 12:58:47;;;;;;;;;;;;;;;;;;4994704;28;25075;-74
2023/04/02 13:01:18;;;;;;;7.18;3.40;;;9.80;99.90;;;;;;4993382;28;24083;-79
2023/04/02 13:03:59;;;;;;;6.10;2.45;;;;;;;;;;4989689;28;25061;-77
2023/04/02 13:06:25;;;;;;;4.90;2.25;;;;;;;;;;4995743;28;25064;-80
2023/04/02 13:08:52;;;;;;;6.00;2.80;;;;;;;;;;4994550;28;25150;-78
2023/04/02 13:11:19;;;;;;;4.88;2.67;;;;;;;;;;4995685;28;25055;-77
2023/04/02 13:13:47;;;;;;;4.07;2.15;;;;;;;;;;4992891;28;25061;-78
2023/04/02 13:16:19;;;;;;;3.75;2.35;;;;;;;;;;4989473;28;25047;-77
2023/04/02 13:18:46;;;;;;;5.75;2.92;;;;;;;;;;4992495;28;25139;-78
2023/04/02 13:21:18;;;;;;;5.70;2.65;;;;;;;;;;5006270;28;25061;-80
2023/04/02 13:23:44;;;;;;;2.65;2.20;;;;;;;;;;5007501;28;25103;-78
2023/04/02 13:26:10;;;;;;;7.68;2.42;;;;;;;;;;5010387;28;25101;-79
2023/04/02 13:28:36;;;;;;;5.90;2.50;;;;;;;;;;5001048;28;25071;-77
2023/04/02 13:31:02;;;;;;;3.28;2.65;;;;;;;;;;4990429;28;25062;-80
2023/04/02 13:33:28;;;;;;;5.70;2.17;;;;;;;;;;4993173;28;25085;-77
2023/04/02 13:35:54;;;;;;;10.20;3.00;;;;;;;;;;5004163;28;25071;-78
2023/04/02 13:38:21;;;;;;;4.85;2.25;;;;;;;;;;4994430;28;25091;-79
2023/04/02 13:40:47;;;;;;;2.88;2.50;;;;;;;;;;5003381;28;25065;-74
2023/04/02 13:43:16;;;;;;;4.45;2.20;;;;;;;;;;5003444;28;25053;-79
2023/04/02 13:45:44;;;;;;;4.10;2.20;;;;;;;;;;4981604;28;25099;-80
2023/04/02 13:48:14;;;;;;;4.60;2.70;;;;;;;;;;4985269;28;25131;-80
2023/04/02 13:50:40;;;;;;;5.32;2.30;;;;;;;;;;5013478;28;25105;-78
2023/04/02 13:53:07;;;;;;;5.30;2.25;;;;;;;;;;4985062;28;25055;-78
2023/04/02 13:55:39;;;;;;;7.95;3.00;;;;;;;;;;4981010;28;25043;-75
2023/04/02 13:58:05;;;;;;;5.40;2.25;;;;;;;;;;4975997;28;25074;-79
2023/04/02 14:00:31;;;;;;;6.43;2.10;;;;;;;;;;4985270;28;25115;-76
2023/04/02 14:03:04;;;;;;;3.33;2.40;;;;;;;;;;4987562;28;25116;-78
2023/04/02 14:05:31;;;;;;;;;;;;;;;;;;4990481;28;25120;-76
2023/04/02 14:07:57;;;;;;;6.43;2.67;;;;;;;;;;4989484;28;25145;-79
2023/04/02 14:10:39;;;;;;;3.22;2.50;;;;;;;;;;4984603;28;25106;-79
2023/04/02 14:13:11;;;;;;;4.32;2.35;;;;;;;;;;4983290;28;25057;-77
2023/04/02 14:15:56;;;;;;;10.95;3.38;;;;;;;;;;4983168;28;25051;-80
2023/04/02 14:18:28;;;;;;;4.82;2.20;;;;;;;;;;4984201;28;24773;-79
2023/04/02 14:21:13;;;;;;;4.93;2.05;;;;;;;;;;4990418;28;25076;-76
2023/04/02 14:23:39;;;;;;;4.63;2.50;;;;;;;;;;4989967;28;25072;-80
2023/04/02 14:26:21;;;;;;;3.42;2.88;;;;;;;;;;4984978;28;25170;-79
2023/04/02 14:29:06;;;;;;;4.07;2.53;;;;;;;;;;4980367;28;25080;-75
2023/04/02 14:31:34;;;;;;;5.13;2.17;;;;;;;;;;4984605;28;25115;-79
2023/04/02 14:34:13;;;;;;;3.65;2.35;;;;;;;;;;4976263;28;25087;-77
2023/04/02 14:36:56;;;;;;;4.75;2.85;;;;;;;;;;4981295;28;25061;-79
2023/04/02 14:39:31;;;;;;;5.85;2.90;;;;;;;;;;4978751;28;25113;-78
2023/04/02 14:41:59;;;;;;;4.78;2.17;;;;;;;;;;4983681;28;25057;-80
2023/04/02 14:44:27;;;;;;;3.60;2.05;;;;;;;;;;4985793;28;25073;-79
2023/04/02 14:47:01;;;;;;;5.97;2.17;;;;;;;;;;4985422;28;25137;-80
2023/04/02 14:49:38;;;;;;;4.47;1.63;;;;;;;;;;4987969;28;25085;-80
2023/04/02 14:52:05;;;;;;;2.17;1.67;;;;;;;;;;4987875;28;25103;-80